< < Back
Terminal Aerodrome Forecast


Current Version              Previous Versions:   1  2  3  4  5  6  7  8  9  

Terminal Aerodrome Forecast

156
FTUS42 KJAX 300540
TAFJAX
TAF
KJAX 300540Z 3006/3106 25006KT P6SM SCT100 BKN250
     FM301000 25007KT P6SM SCT020 BKN040 WS015/29035KT
      TEMPO 3011/3014 BKN020
     FM301400 32012G20KT P6SM FEW020 BKN250
     FM301800 33010KT P6SM FEW250=



Latest METAR

611
SAUS80 KWBC 301100 RRA
MTRJAX
METAR KJAX 301056Z 24010KT 10SM FEW070 FEW110 SCT250 11/11 A3013 RMK AO2
SLP202 T01110106


USA.gov is the U.S. government's official web portal to all federal, state and local government web resources and services.